Startpagina
METAR-TAF:

METAR-TAF

Vliegvelden :

Aeroporto da Madeira

Funchal, Madeira, Portugal

breedte: 32-41-52N, lengte: 016-46-28W, hoogte: 59 m

Actueel weer

Dit bericht is 25 minuten geleden gemaakt, om 19:30 UTC
Wind 6 kt uit het noorden
Temperatuur 15°C
Vochtigheid 63%
Druk 1021 hPa
Zicht 10 km of meer
Verspreide wolken op 1600 ft
Gebroken wolken op 3300 ft

METAR: LPMA 191930Z 35006KT 9999 SCT016 BKN033 15/08 Q1021

Tijdstip: 19:55 (19:55 UTC)

Verwachting

Dit bericht is 2 uur en het 55 minuten geleden gemaakt, om 17:00 UTC
Verwachting geldig van 19 om 18 UTC tot 20 om 18 UTC
Wind 8 kt uit het noorden
Zicht 10 km of meer
Verspreide wolken op 1500 ft
Gebroken wolken op 3000 ft
Tijdelijke
van 19 om 18 UTC tot 20 om 10 UTC
Wind 5 kt uit variabele richting
Verspreide wolken op 1500 ft
Wijzigt naar
van 20 om 10 UTC tot 20 om 12 UTC
Wind 12 kt uit het zuidzuidwesten

TAF: LPMA 191700Z 1918/2018 36008KT 9999 SCT015 BKN030 TEMPO 1918/2010 VRB05KT SCT015 BECMG 2010/2012 21012KT

Waarnemingen en weersverwachtingen van meer dan 4000 vliegvelden (METAR en TAF).

De beschikbare stations zijn de gele en rode punten op de kaart.

Ga met uw muis naar het station om de naam te zien.

Klik dan om waarnemingen en weersverwachtingen te zien.

kaart wijzigen: klik op de groene knoppen met een zwart kruis om in te zoomen, op de groene knop met een streepje om uit te zoomen of op de groene pijlen voor aangrenzende kaarten.


METAR-TAF: